createdAt,value
2022-08-09T00:00:59.330Z,3.08
2022-08-09T00:04:03.692Z,2.95
2022-08-09T00:06:22.771Z,4.13
2022-08-09T00:08:52.281Z,3.30
2022-08-09T00:11:55.038Z,4.43
2022-08-09T00:14:19.982Z,4.30
2022-08-09T00:16:57.035Z,3.33
2022-08-09T00:19:27.782Z,3.47
2022-08-09T00:21:57.163Z,3.80
2022-08-09T00:24:27.215Z,3.10
2022-08-09T00:26:57.272Z,3.22
2022-08-09T00:30:10.236Z,3.00
2022-08-09T00:32:14.218Z,3.00
2022-08-09T00:35:04.192Z,3.42
2022-08-09T00:37:32.730Z,4.20
2022-08-09T00:40:13.770Z,3.95
2022-08-09T00:44:14.338Z,3.30
2022-08-09T00:45:35.118Z,4.50
2022-08-09T00:48:03.796Z,4.50
2022-08-09T00:50:33.584Z,3.85
2022-08-09T00:53:10.206Z,7.72
2022-08-09T00:56:04.121Z,4.90
2022-08-09T00:58:27.905Z,5.53
2022-08-09T01:00:59.683Z,5.10
2022-08-09T01:03:40.728Z,4.20
2022-08-09T01:06:22.045Z,14.70
2022-08-09T01:09:02.585Z,8.60
2022-08-09T01:11:53.067Z,5.28
2022-08-09T01:14:30.270Z,5.38
2022-08-09T01:17:05.478Z,3.25
2022-08-09T01:19:57.067Z,4.60
2022-08-09T01:24:00.503Z,9.27
2022-08-09T01:26:17.757Z,7.28
2022-08-09T01:28:51.586Z,5.82
2022-08-09T01:32:32.552Z,4.75
2022-08-09T01:34:18.011Z,3.65
2022-08-09T01:39:17.834Z,4.15
2022-08-09T01:41:53.489Z,3.58
2022-08-09T01:44:30.988Z,3.40
2022-08-09T01:47:01.819Z,4.53
2022-08-09T01:49:39.037Z,3.22
2022-08-09T01:52:14.721Z,5.78
2022-08-09T01:54:48.510Z,5.35
2022-08-09T01:57:20.652Z,5.07
2022-08-09T01:59:59.972Z,6.28
2022-08-09T02:02:33.016Z,4.28
2022-08-09T02:05:15.168Z,7.47
2022-08-09T02:08:39.387Z,6.75
2022-08-09T02:10:42.843Z,5.97
2022-08-09T02:13:21.884Z,4.45
2022-08-09T02:15:53.624Z,8.02
2022-08-09T02:18:28.450Z,5.25
2022-08-09T02:21:00.451Z,4.50
2022-08-09T02:23:40.086Z,5.28
2022-08-09T02:26:25.272Z,4.95
2022-08-09T02:28:59.601Z,5.55
2022-08-09T02:31:36.387Z,5.53
2022-08-09T02:34:13.193Z,6.63
2022-08-09T02:36:44.278Z,6.25
2022-08-09T02:39:19.949Z,4.70
2022-08-09T02:42:04.952Z,5.55
2022-08-09T02:44:38.298Z,4.40
2022-08-09T02:47:12.442Z,4.03
2022-08-09T02:49:44.354Z,6.88
2022-08-09T02:52:18.452Z,4.60
2022-08-09T02:54:53.918Z,5.65
2022-08-09T02:57:25.266Z,7.00
2022-08-09T03:00:21.298Z,4.57
2022-08-09T03:03:00.506Z,5.20
2022-08-09T03:05:34.133Z,6.50
2022-08-09T03:08:06.212Z,5.40
2022-08-09T03:10:36.384Z,5.07
2022-08-09T03:13:08.626Z,6.80
2022-08-09T03:16:04.131Z,4.32
2022-08-09T03:18:30.628Z,5.43
2022-08-09T03:21:02.885Z,5.85
2022-08-09T03:23:31.807Z,4.97
2022-08-09T03:26:03.644Z,4.80
2022-08-09T03:28:36.198Z,7.72
2022-08-09T03:31:21.107Z,6.53
2022-08-09T03:33:54.747Z,5.60
2022-08-09T03:36:27.025Z,7.13
2022-08-09T03:38:57.622Z,5.65
2022-08-09T03:41:29.751Z,5.25
2022-08-09T03:46:46.418Z,4.88
2022-08-09T03:49:19.234Z,6.00
2022-08-09T03:51:58.324Z,7.90
2022-08-09T03:54:34.661Z,4.55
2022-08-09T03:57:18.038Z,5.85
2022-08-09T03:59:53.610Z,7.15
2022-08-09T04:02:27.885Z,7.00
2022-08-09T04:05:00.676Z,6.13
2022-08-09T04:07:47.045Z,5.20
2022-08-09T04:10:20.752Z,4.93
2022-08-09T04:12:56.893Z,6.78
2022-08-09T04:15:42.621Z,5.32
2022-08-09T04:18:16.501Z,5.63
2022-08-09T04:20:48.161Z,7.80
2022-08-09T04:23:17.884Z,7.35
2022-08-09T04:25:53.071Z,30.55
2022-08-09T04:28:33.570Z,32.85
2022-08-09T04:31:10.108Z,12.95
2022-08-09T04:33:52.182Z,7.72
2022-08-09T04:36:24.070Z,7.72
2022-08-09T04:38:53.049Z,5.38
2022-08-09T04:41:23.955Z,6.80
2022-08-09T04:44:06.916Z,39.33
2022-08-09T04:46:58.454Z,19.48
2022-08-09T04:49:53.264Z,12.90
2022-08-09T04:52:26.698Z,15.02
2022-08-09T04:55:04.766Z,14.80
2022-08-09T04:57:53.949Z,12.25
2022-08-09T05:00:31.640Z,7.15
2022-08-09T05:03:39.874Z,4.80
2022-08-09T05:06:07.134Z,7.18
2022-08-09T05:08:37.587Z,6.38
2022-08-09T05:11:07.730Z,5.35
2022-08-09T05:13:38.690Z,6.13
2022-08-09T05:16:08.224Z,7.40
2022-08-09T05:18:50.230Z,5.82
2022-08-09T05:21:30.046Z,6.05
2022-08-09T05:24:02.229Z,6.75
2022-08-09T05:26:45.656Z,5.72
2022-08-09T05:29:21.994Z,18.13
2022-08-09T05:31:57.046Z,29.50
2022-08-09T05:34:30.955Z,15.63
2022-08-09T05:37:02.388Z,9.45
2022-08-09T05:39:35.765Z,7.10
2022-08-09T05:42:05.996Z,7.95
2022-08-09T05:44:35.123Z,7.03
2022-08-09T05:47:04.892Z,6.13
2022-08-09T05:50:24.511Z,6.35
2022-08-09T05:52:22.220Z,7.28
2022-08-09T05:54:55.334Z,5.47
2022-08-09T05:57:25.168Z,7.57
2022-08-09T06:00:13.806Z,8.05
2022-08-09T06:02:42.361Z,12.30
2022-08-09T06:05:15.121Z,8.82
2022-08-09T06:07:44.325Z,5.88
2022-08-09T06:10:39.707Z,6.15
2022-08-09T06:13:12.000Z,5.28
2022-08-09T06:15:41.114Z,5.65
2022-08-09T06:18:10.099Z,5.90
2022-08-09T06:20:39.643Z,4.28
2022-08-09T06:23:07.686Z,4.22
2022-08-09T06:25:41.692Z,4.15
2022-08-09T06:28:11.337Z,11.48
2022-08-09T06:30:43.441Z,5.53
2022-08-09T06:33:30.423Z,3.10
2022-08-09T06:36:01.085Z,3.78
2022-08-09T06:38:36.381Z,3.08
2022-08-09T06:41:18.163Z,2.35
2022-08-09T06:43:47.758Z,4.25
2022-08-09T06:46:39.981Z,6.13
2022-08-09T06:49:04.262Z,3.83
2022-08-09T06:51:33.671Z,2.22
2022-08-09T06:54:09.320Z,4.90
2022-08-09T06:56:46.399Z,6.00
2022-08-09T07:00:55.637Z,2.17
2022-08-09T07:02:03.495Z,1.10
2022-08-09T07:04:32.727Z,2.17
2022-08-09T07:07:01.095Z,1.70
2022-08-09T07:09:55.597Z,1.80
2022-08-09T07:12:38.859Z,2.03
2022-08-09T07:16:34.834Z,4.70
2022-08-09T07:18:02.561Z,1.60
2022-08-09T07:20:31.611Z,1.00
2022-08-09T07:22:59.803Z,1.25
2022-08-09T07:25:28.121Z,1.83
2022-08-09T07:27:58.498Z,1.40
2022-08-09T07:30:33.233Z,1.88
2022-08-09T07:33:01.651Z,2.38
2022-08-09T07:35:53.504Z,1.98
2022-08-09T07:38:23.914Z,1.85
2022-08-09T07:41:12.700Z,2.03
2022-08-09T07:43:49.981Z,1.67
2022-08-09T07:46:27.712Z,1.40
2022-08-09T07:48:58.983Z,2.35
2022-08-09T07:52:05.785Z,1.45
2022-08-09T07:54:27.679Z,1.45
2022-08-09T07:56:56.428Z,2.75
2022-08-09T07:59:34.049Z,1.77
2022-08-09T08:02:19.947Z,1.30
2022-08-09T08:04:49.332Z,1.35
2022-08-09T08:08:06.193Z,2.17
2022-08-09T08:10:11.360Z,1.52
2022-08-09T08:12:43.770Z,1.58
2022-08-09T08:15:17.277Z,1.77
2022-08-09T08:17:53.436Z,1.65
2022-08-09T08:20:27.235Z,1.17
2022-08-09T08:23:03.428Z,1.60
2022-08-09T08:25:46.644Z,1.05
2022-08-09T08:28:18.029Z,0.90
2022-08-09T08:30:48.688Z,1.55
2022-08-09T08:33:22.922Z,2.15
2022-08-09T08:35:59.816Z,2.47
2022-08-09T08:38:29.126Z,1.75
2022-08-09T08:40:58.171Z,1.40
2022-08-09T08:43:27.659Z,1.45
2022-08-09T08:46:09.802Z,3.33
2022-08-09T08:48:53.580Z,2.42
2022-08-09T08:51:22.839Z,1.85
2022-08-09T08:54:04.301Z,2.00
2022-08-09T08:56:35.921Z,1.00
2022-08-09T08:59:07.686Z,1.17
2022-08-09T09:01:53.247Z,1.48
2022-08-09T09:04:29.853Z,0.70
2022-08-09T09:07:03.887Z,1.17
2022-08-09T09:09:57.919Z,1.05
2022-08-09T09:12:27.506Z,0.93
2022-08-09T09:15:00.175Z,0.95
2022-08-09T09:17:43.315Z,1.30
2022-08-09T09:20:18.139Z,1.23
2022-08-09T09:22:54.340Z,1.65
2022-08-09T09:26:04.536Z,3.55
2022-08-09T09:29:02.182Z,1.77
2022-08-09T09:32:14.911Z,1.10
2022-08-09T09:34:18.572Z,1.73
2022-08-09T09:36:53.069Z,1.27
2022-08-09T09:39:42.666Z,1.45
2022-08-09T09:42:24.686Z,1.92
2022-08-09T09:44:58.823Z,2.13
2022-08-09T09:47:28.442Z,2.05
2022-08-09T09:50:14.927Z,1.42
2022-08-09T09:52:54.632Z,1.55
2022-08-09T09:55:32.556Z,2.33
2022-08-09T09:58:17.435Z,1.75
2022-08-09T10:00:53.936Z,1.60
2022-08-09T10:03:57.239Z,1.80
2022-08-09T10:06:32.123Z,2.45
2022-08-09T10:09:11.600Z,1.80
2022-08-09T10:12:11.382Z,1.70
2022-08-09T10:14:47.965Z,2.35
2022-08-09T10:17:51.133Z,1.92
2022-08-09T10:20:27.632Z,1.73
2022-08-09T10:23:17.263Z,2.22
2022-08-09T10:26:06.765Z,2.25
2022-08-09T10:28:39.879Z,4.22
2022-08-09T10:32:27.571Z,2.70
2022-08-09T10:34:10.953Z,2.30
2022-08-09T10:36:50.385Z,2.40
2022-08-09T10:39:26.940Z,2.30
2022-08-09T10:41:57.026Z,1.27
2022-08-09T10:44:39.898Z,0.70
2022-08-09T10:48:14.396Z,1.35
2022-08-09T10:50:31.238Z,1.13
2022-08-09T10:53:23.043Z,2.30
2022-08-09T10:56:22.696Z,1.13
2022-08-09T10:58:55.449Z,2.70
2022-08-09T11:03:13.337Z,0.70
2022-08-09T11:04:32.901Z,0.77
2022-08-09T11:07:58.307Z,0.70
2022-08-09T11:10:59.756Z,0.80
2022-08-09T11:13:50.920Z,1.13
2022-08-09T11:16:36.029Z,1.93
2022-08-09T11:19:10.666Z,0.90
2022-08-09T11:22:05.017Z,0.60
2022-08-09T11:25:05.555Z,0.68
2022-08-09T11:28:03.972Z,2.30
2022-08-09T11:30:38.208Z,0.63
2022-08-09T11:33:15.517Z,3.58
2022-08-09T11:35:49.630Z,1.20
2022-08-09T11:38:22.462Z,2.47
2022-08-09T11:40:57.683Z,1.92
2022-08-09T11:43:41.065Z,1.05
2022-08-09T11:46:11.278Z,2.10
2022-08-09T11:48:50.955Z,1.60
2022-08-09T11:53:03.370Z,1.25
2022-08-09T11:54:28.830Z,1.55
2022-08-09T11:58:00.863Z,1.38
2022-08-09T12:00:28.355Z,1.95
2022-08-09T12:03:50.207Z,0.50
2022-08-09T12:05:52.172Z,1.58
2022-08-09T12:08:23.067Z,0.65
2022-08-09T12:10:55.933Z,2.70
2022-08-09T12:14:08.535Z,1.17
2022-08-09T12:16:37.286Z,1.42
2022-08-09T12:19:11.397Z,1.40
2022-08-09T12:21:48.578Z,1.25
2022-08-09T12:24:25.317Z,0.70
2022-08-09T12:29:15.304Z,2.20
2022-08-09T12:30:01.845Z,1.55
2022-08-09T12:32:45.623Z,2.33
2022-08-09T12:35:22.769Z,0.88
2022-08-09T12:37:52.192Z,1.15
2022-08-09T12:40:24.447Z,0.80
2022-08-09T12:42:54.105Z,1.80
2022-08-09T12:45:34.441Z,0.68
2022-08-09T12:48:20.453Z,1.23
2022-08-09T12:50:59.869Z,0.60
2022-08-09T12:53:38.862Z,2.05
2022-08-09T12:56:37.051Z,0.70
2022-08-09T12:59:08.936Z,0.73
2022-08-09T13:01:48.749Z,1.85
2022-08-09T13:04:37.249Z,1.23
2022-08-09T13:07:16.417Z,0.35
2022-08-09T13:09:55.367Z,7.35
2022-08-09T13:12:29.187Z,5.97
2022-08-09T13:15:07.137Z,1.80
2022-08-09T13:18:02.860Z,0.80
2022-08-09T13:20:37.133Z,2.05
2022-08-09T13:24:15.905Z,2.83
2022-08-09T13:26:10.115Z,1.67
2022-08-09T13:28:39.652Z,0.93
2022-08-09T13:32:14.185Z,1.58
2022-08-09T13:33:58.526Z,0.95
2022-08-09T13:36:42.404Z,1.25
2022-08-09T13:41:51.143Z,1.50
2022-08-09T13:42:03.540Z,1.73
2022-08-09T13:44:33.517Z,1.45
2022-08-09T13:47:26.887Z,1.50
2022-08-09T13:49:57.620Z,1.45
2022-08-09T13:52:29.908Z,0.60
2022-08-09T13:55:05.211Z,1.77
2022-08-09T13:57:42.955Z,0.45
2022-08-09T14:00:15.502Z,0.60
2022-08-09T14:03:02.857Z,0.80
2022-08-09T14:06:00.478Z,0.60
2022-08-09T14:08:23.179Z,1.45
2022-08-09T14:10:53.406Z,7.85
2022-08-09T14:14:14.896Z,2.67
2022-08-09T14:16:15.302Z,1.90
2022-08-09T14:18:49.615Z,1.38
2022-08-09T14:21:22.200Z,1.17
2022-08-09T14:23:55.620Z,2.60
2022-08-09T14:26:30.603Z,1.67
2022-08-09T14:29:02.976Z,1.67
2022-08-09T14:31:49.540Z,1.45
2022-08-09T14:34:31.243Z,2.33
2022-08-09T14:37:06.440Z,2.33
2022-08-09T14:39:46.575Z,0.95
2022-08-09T14:42:40.463Z,1.73
2022-08-09T14:46:40.385Z,0.80
2022-08-09T14:48:00.327Z,0.88
2022-08-09T14:50:32.599Z,2.28
2022-08-09T14:53:02.096Z,1.52
2022-08-09T14:55:32.289Z,1.42
2022-08-09T14:58:06.117Z,1.80
2022-08-09T15:00:36.651Z,0.60
2022-08-09T15:03:07.728Z,2.50
2022-08-09T15:05:38.408Z,0.93
2022-08-09T15:08:06.939Z,0.70
2022-08-09T15:10:39.031Z,1.25
2022-08-09T15:13:09.337Z,6.32
2022-08-09T15:15:39.466Z,1.00
2022-08-09T15:18:14.261Z,1.25
2022-08-09T15:21:56.529Z,1.98
2022-08-09T15:24:00.838Z,1.23
2022-08-09T15:26:31.231Z,0.57
2022-08-09T15:29:04.851Z,1.27
2022-08-09T15:31:40.667Z,0.50
2022-08-09T15:34:31.719Z,4.38
2022-08-09T15:37:01.048Z,0.40
2022-08-09T15:39:34.772Z,1.65
2022-08-09T15:42:18.957Z,1.77
2022-08-09T15:44:48.614Z,1.33
2022-08-09T15:47:22.482Z,0.57
2022-08-09T15:50:04.885Z,0.98
2022-08-09T15:52:35.341Z,2.30
2022-08-09T15:55:04.661Z,0.60
2022-08-09T15:57:35.053Z,2.60
2022-08-09T16:00:24.227Z,1.67
2022-08-09T16:02:56.288Z,1.25
2022-08-09T16:05:47.618Z,0.93
2022-08-09T16:08:30.362Z,1.38
2022-08-09T16:11:00.023Z,2.17
2022-08-09T16:14:04.835Z,2.47
2022-08-09T16:16:20.339Z,2.58
2022-08-09T16:18:56.506Z,2.50
2022-08-09T16:21:26.191Z,2.38
2022-08-09T16:23:58.588Z,2.72
2022-08-09T16:26:34.609Z,0.93
2022-08-09T16:29:11.698Z,1.15
2022-08-09T16:32:20.130Z,3.80
2022-08-09T16:34:53.535Z,0.77
2022-08-09T16:37:20.504Z,2.00
2022-08-09T16:40:11.375Z,2.25
2022-08-09T16:42:44.974Z,0.90
2022-08-09T16:45:17.468Z,3.00
2022-08-09T16:48:41.896Z,1.40
2022-08-09T16:50:38.654Z,0.65
2022-08-09T16:53:08.767Z,1.70
2022-08-09T16:55:59.951Z,1.80
2022-08-09T16:58:25.955Z,1.58
2022-08-09T17:00:55.062Z,4.32
2022-08-09T17:03:24.760Z,1.98
2022-08-09T17:06:06.587Z,1.08
2022-08-09T17:08:46.510Z,2.83
2022-08-09T17:11:40.937Z,1.92
2022-08-09T17:14:26.057Z,1.65
2022-08-09T17:16:59.878Z,1.92
2022-08-09T17:19:47.542Z,1.15
2022-08-09T17:22:23.737Z,4.80
2022-08-09T17:24:55.228Z,4.13
2022-08-09T17:27:24.291Z,3.13
2022-08-09T17:29:53.466Z,2.78
2022-08-09T17:32:26.706Z,2.22
2022-08-09T17:35:12.290Z,3.75
2022-08-09T17:38:02.133Z,4.55
2022-08-09T17:40:32.771Z,4.32
2022-08-09T17:43:10.866Z,3.55
2022-08-09T17:46:05.910Z,1.30
2022-08-09T17:48:35.258Z,1.85
2022-08-09T17:51:17.881Z,1.00
2022-08-09T17:53:52.896Z,2.42
2022-08-09T17:56:27.885Z,1.88
2022-08-09T17:59:03.012Z,2.08
2022-08-09T18:02:03.572Z,2.60
2022-08-09T18:04:20.594Z,1.23
2022-08-09T18:06:55.317Z,2.63
2022-08-09T18:09:25.199Z,1.05
2022-08-09T18:12:17.684Z,1.95
2022-08-09T18:14:53.785Z,1.20
2022-08-09T18:17:27.400Z,1.08
2022-08-09T18:20:55.889Z,1.40
2022-08-09T18:23:05.347Z,0.70
2022-08-09T18:25:53.279Z,14.57
2022-08-09T18:30:40.623Z,3.42
2022-08-09T18:31:12.088Z,1.33
2022-08-09T18:33:40.732Z,0.60
2022-08-09T18:36:14.468Z,2.88
2022-08-09T18:39:00.922Z,1.83
2022-08-09T18:41:34.999Z,1.88
2022-08-09T18:44:12.369Z,0.80
2022-08-09T18:46:50.226Z,1.55
2022-08-09T18:49:31.901Z,3.55
2022-08-09T18:52:00.607Z,3.40
2022-08-09T18:54:30.514Z,2.88
2022-08-09T18:57:05.907Z,2.20
2022-08-09T18:59:37.546Z,1.25
2022-08-09T19:02:17.871Z,1.52
2022-08-09T19:04:47.775Z,1.95
2022-08-09T19:07:28.970Z,4.70
2022-08-09T19:10:13.868Z,1.30
2022-08-09T19:12:52.792Z,2.67
2022-08-09T19:15:27.349Z,2.20
2022-08-09T19:17:58.287Z,2.80
2022-08-09T19:20:34.440Z,1.17
2022-08-09T19:23:07.749Z,1.58
2022-08-09T19:26:01.401Z,1.30
2022-08-09T19:28:28.860Z,4.05
2022-08-09T19:30:57.168Z,0.90
2022-08-09T19:33:25.310Z,5.60
2022-08-09T19:35:57.114Z,9.35
2022-08-09T19:38:27.341Z,7.10
2022-08-09T19:41:00.396Z,3.28
2022-08-09T19:44:01.616Z,2.05
2022-08-09T19:46:17.293Z,3.60
2022-08-09T19:50:07.709Z,1.35
2022-08-09T19:51:55.359Z,1.92
2022-08-09T19:54:25.247Z,1.35
2022-08-09T19:56:55.090Z,4.72
2022-08-09T19:59:58.414Z,2.13
2022-08-09T20:02:18.157Z,1.77
2022-08-09T20:05:02.453Z,3.03
2022-08-09T20:07:59.789Z,1.35
2022-08-09T20:10:34.938Z,3.88
2022-08-09T20:13:08.240Z,1.98
2022-08-09T20:16:34.846Z,1.80
2022-08-09T20:18:27.885Z,1.55
2022-08-09T20:20:57.496Z,3.38
2022-08-09T20:23:38.873Z,1.85
2022-08-09T20:26:09.924Z,3.05
2022-08-09T20:28:48.059Z,1.92
2022-08-09T20:31:18.862Z,1.70
2022-08-09T20:33:52.481Z,1.60
2022-08-09T20:36:27.327Z,1.75
2022-08-09T20:39:27.996Z,1.20
2022-08-09T20:41:44.109Z,2.08
2022-08-09T20:44:16.464Z,3.83
2022-08-09T20:46:54.795Z,1.10
2022-08-09T20:49:24.069Z,2.53
2022-08-09T20:51:53.225Z,1.10
2022-08-09T20:54:24.681Z,2.88
2022-08-09T20:56:53.595Z,2.25
2022-08-09T21:00:19.601Z,1.40
2022-08-09T21:02:26.904Z,1.92
2022-08-09T21:05:56.926Z,2.25
2022-08-09T21:07:44.872Z,2.55
2022-08-09T21:10:13.032Z,3.17
2022-08-09T21:15:34.679Z,1.23
2022-08-09T21:18:25.553Z,1.27
2022-08-09T21:20:54.101Z,4.15
2022-08-09T21:23:36.102Z,1.65
2022-08-09T21:26:11.388Z,1.77
2022-08-09T21:28:39.728Z,3.67
2022-08-09T21:31:49.120Z,2.65
2022-08-09T21:34:28.822Z,2.22
2022-08-09T21:39:55.826Z,2.50
2022-08-09T21:42:28.566Z,2.05
2022-08-09T21:44:57.369Z,1.33
2022-08-09T21:47:26.815Z,1.75
2022-08-09T21:49:58.059Z,1.30
2022-08-09T21:52:28.158Z,1.95
2022-08-09T21:55:04.150Z,11.63
2022-08-09T21:57:39.488Z,20.50
2022-08-09T22:00:26.005Z,7.63
2022-08-09T22:02:59.235Z,3.92
2022-08-09T22:05:35.791Z,2.53
2022-08-09T22:08:11.902Z,1.88
2022-08-09T22:11:04.884Z,1.67
2022-08-09T22:13:34.408Z,3.47
2022-08-09T22:16:04.422Z,1.63
2022-08-09T22:18:37.969Z,1.65
2022-08-09T22:21:09.381Z,4.00
2022-08-09T22:23:58.986Z,2.00
2022-08-09T22:26:35.193Z,1.92
2022-08-09T22:29:09.027Z,4.07
2022-08-09T22:31:50.287Z,1.52
2022-08-09T22:34:27.163Z,3.65
2022-08-09T22:36:55.746Z,2.15
2022-08-09T22:39:55.951Z,1.73
2022-08-09T22:42:21.070Z,2.60
2022-08-09T22:48:06.112Z,3.03
2022-08-09T22:48:14.953Z,5.20
2022-08-09T22:50:32.423Z,1.83
2022-08-09T22:53:03.764Z,2.47
2022-08-09T22:56:06.140Z,3.60
2022-08-09T22:58:32.599Z,1.92
2022-08-09T23:01:02.507Z,5.35
2022-08-09T23:04:05.923Z,3.28
2022-08-09T23:06:34.673Z,2.47
2022-08-09T23:09:04.976Z,2.53
2022-08-09T23:11:33.031Z,13.43
2022-08-09T23:14:02.957Z,12.75
2022-08-09T23:16:31.200Z,9.40
2022-08-09T23:18:59.487Z,4.05
2022-08-09T23:21:35.175Z,4.32
2022-08-09T23:24:06.992Z,2.95
2022-08-09T23:26:36.358Z,3.92
2022-08-09T23:29:05.660Z,2.80
2022-08-09T23:31:34.206Z,3.83
2022-08-09T23:34:03.909Z,3.30
2022-08-09T23:36:33.964Z,4.43
2022-08-09T23:39:02.638Z,3.25
2022-08-09T23:41:30.919Z,4.35
2022-08-09T23:44:00.262Z,12.30
2022-08-09T23:46:28.959Z,8.93
2022-08-09T23:48:57.016Z,10.32
2022-08-09T23:51:25.763Z,6.78
2022-08-09T23:54:02.357Z,5.55
2022-08-09T23:56:52.833Z,3.95
2022-08-09T23:59:20.777Z,4.85
